createdAt,value
2023-03-21T00:01:57.858Z,100540.81
2023-03-21T00:04:29.678Z,100537.34
2023-03-21T00:06:58.302Z,100534.69
2023-03-21T00:09:25.220Z,100544.38
2023-03-21T00:11:52.096Z,100533.84
2023-03-21T00:14:20.293Z,100544.38
2023-03-21T00:16:53.119Z,100537.38
2023-03-21T00:19:21.224Z,100545.22
2023-03-21T00:22:05.815Z,100543.47
2023-03-21T00:24:33.907Z,100543.47
2023-03-21T00:27:24.635Z,100544.38
2023-03-21T00:29:51.364Z,100531.19
2023-03-21T00:32:19.804Z,100526.84
2023-03-21T00:35:01.331Z,100531.19
2023-03-21T00:37:29.387Z,100521.53
2023-03-21T00:39:56.610Z,100524.16
2023-03-21T00:42:23.984Z,100521.56
2023-03-21T00:44:50.879Z,100511.91
2023-03-21T00:47:18.286Z,100511.94
2023-03-21T00:49:45.358Z,100514.56
2023-03-21T00:52:18.634Z,100514.56
2023-03-21T00:54:52.202Z,100509.34
2023-03-21T00:57:22.094Z,100509.34
2023-03-21T00:59:51.202Z,100520.72
2023-03-21T01:02:23.424Z,100510.28
2023-03-21T01:04:51.418Z,100517.25
2023-03-21T01:07:18.588Z,100517.25
2023-03-21T01:09:45.839Z,100503.22
2023-03-21T01:12:13.201Z,100507.63
2023-03-21T01:14:40.178Z,100505.00
2023-03-21T01:17:07.077Z,100504.13
2023-03-21T01:19:50.298Z,100497.13
2023-03-21T01:22:18.590Z,100499.75
2023-03-21T01:24:53.819Z,100498.03
2023-03-21T01:27:22.279Z,100495.38
2023-03-21T01:29:49.341Z,100495.34
2023-03-21T01:32:16.967Z,100494.50
2023-03-21T01:34:43.856Z,100490.97
2023-03-21T01:37:10.995Z,100490.97
2023-03-21T01:39:37.964Z,100488.28
2023-03-21T01:42:04.979Z,100484.78
2023-03-21T01:44:32.223Z,100485.63
2023-03-21T01:47:10.508Z,100481.16
2023-03-21T01:49:46.541Z,100484.81
2023-03-21T01:52:29.783Z,100482.19
2023-03-21T01:55:02.702Z,100486.53
2023-03-21T01:57:43.533Z,100479.56
2023-03-21T02:00:16.073Z,100475.19
2023-03-21T02:03:19.038Z,100486.56
2023-03-21T02:05:55.919Z,100476.97
2023-03-21T02:08:30.516Z,100478.72
2023-03-21T02:11:05.688Z,100474.34
2023-03-21T02:13:32.775Z,100468.19
2023-03-21T02:16:08.315Z,100475.19
2023-03-21T02:18:43.324Z,100471.72
2023-03-21T02:21:45.604Z,100472.59
2023-03-21T02:24:15.396Z,100472.59
2023-03-21T02:27:04.088Z,100467.37
2023-03-21T02:30:02.423Z,100467.37
2023-03-21T02:32:57.487Z,100475.16
2023-03-21T02:35:51.810Z,100466.47
2023-03-21T02:38:43.356Z,100470.81
2023-03-21T02:41:29.873Z,100476.91
2023-03-21T02:44:14.678Z,100482.09
2023-03-21T02:46:59.678Z,100482.09
2023-03-21T02:49:47.525Z,100482.84
2023-03-21T02:52:35.579Z,100482.06
2023-03-21T02:55:14.042Z,100476.88
2023-03-21T02:57:47.398Z,100478.66
2023-03-21T03:00:20.320Z,100481.09
2023-03-21T03:02:54.663Z,100473.34
2023-03-21T03:05:29.591Z,100475.97
2023-03-21T03:08:24.031Z,100481.03
2023-03-21T03:10:56.580Z,100479.31
2023-03-21T03:13:34.866Z,100477.59
2023-03-21T03:16:08.057Z,100478.47
2023-03-21T03:18:45.581Z,100476.69
2023-03-21T03:21:34.341Z,100477.63
2023-03-21T03:24:12.142Z,100469.72
2023-03-21T03:26:43.763Z,100476.75
2023-03-21T03:29:16.879Z,100484.56
2023-03-21T03:31:51.862Z,100481.03
2023-03-21T03:34:22.525Z,100488.00
2023-03-21T03:36:56.586Z,100481.88
2023-03-21T03:39:33.177Z,100473.25
2023-03-21T03:42:21.788Z,100471.37
2023-03-21T03:44:54.821Z,100479.25
2023-03-21T03:47:32.322Z,100480.06
2023-03-21T03:50:09.919Z,100473.91
2023-03-21T03:52:55.656Z,100478.25
2023-03-21T03:55:27.470Z,100480.00
2023-03-21T03:57:55.734Z,100483.59
2023-03-21T04:00:23.037Z,100482.81
2023-03-21T04:02:50.572Z,100484.56
2023-03-21T04:05:21.532Z,100488.00
2023-03-21T04:07:51.208Z,100487.13
2023-03-21T04:10:18.719Z,100487.97
2023-03-21T04:12:45.640Z,100488.91
2023-03-21T04:15:13.190Z,100487.94
2023-03-21T04:17:40.300Z,100487.97
2023-03-21T04:20:15.228Z,100493.12
2023-03-21T04:22:45.908Z,100488.09
2023-03-21T04:25:21.896Z,100485.22
2023-03-21T04:27:51.404Z,100484.50
2023-03-21T04:30:19.939Z,100485.44
2023-03-21T04:32:56.843Z,100487.94
2023-03-21T04:35:25.230Z,100482.75
2023-03-21T04:37:52.233Z,100486.34
2023-03-21T04:40:19.408Z,100480.31
2023-03-21T04:42:48.078Z,100488.00
2023-03-21T04:45:17.144Z,100485.53
2023-03-21T04:47:44.449Z,100487.28
2023-03-21T04:50:13.565Z,100481.06
2023-03-21T04:52:40.645Z,100487.28
2023-03-21T04:55:10.450Z,100487.31
2023-03-21T04:57:38.633Z,100483.75
2023-03-21T05:00:11.397Z,100483.66
2023-03-21T05:02:39.192Z,100483.59
2023-03-21T05:05:07.281Z,100489.78
2023-03-21T05:07:34.237Z,100490.78
2023-03-21T05:10:02.860Z,100486.34
2023-03-21T05:12:29.795Z,100494.19
2023-03-21T05:14:57.255Z,100485.53
2023-03-21T05:17:25.174Z,100498.44
2023-03-21T05:19:53.097Z,100492.56
2023-03-21T05:22:20.850Z,100492.47
2023-03-21T05:24:51.019Z,100499.41
2023-03-21T05:27:34.426Z,100502.06
2023-03-21T05:30:01.916Z,100501.13
2023-03-21T05:32:29.011Z,100499.44
2023-03-21T05:34:56.659Z,100504.63
2023-03-21T05:37:24.054Z,100506.38
2023-03-21T05:39:51.560Z,100501.84
2023-03-21T05:42:19.160Z,100505.47
2023-03-21T05:44:46.466Z,100510.75
2023-03-21T05:47:15.219Z,100508.31
2023-03-21T05:49:42.556Z,100496.25
2023-03-21T05:52:10.260Z,100496.12
2023-03-21T05:54:37.695Z,100495.28
2023-03-21T05:57:05.659Z,100494.41
2023-03-21T05:59:32.852Z,100487.81
2023-03-21T06:01:59.927Z,100485.78
2023-03-21T06:04:27.300Z,100487.97
2023-03-21T06:06:54.800Z,100482.28
2023-03-21T06:09:22.838Z,100480.44
2023-03-21T06:11:53.521Z,100477.31
2023-03-21T06:14:21.663Z,100472.72
2023-03-21T06:16:48.682Z,100476.88
2023-03-21T06:19:15.939Z,100486.41
2023-03-21T06:21:43.655Z,100475.47
2023-03-21T06:24:10.861Z,100474.09
2023-03-21T06:26:38.533Z,100478.69
2023-03-21T06:29:06.224Z,100476.97
2023-03-21T06:31:33.138Z,100475.69
2023-03-21T06:34:00.300Z,100479.88
2023-03-21T06:36:27.939Z,100483.94
2023-03-21T06:38:54.866Z,100498.16
2023-03-21T06:41:21.877Z,100491.44
2023-03-21T06:43:48.790Z,100500.56
2023-03-21T06:46:15.790Z,100495.81
2023-03-21T06:48:44.806Z,100492.25
2023-03-21T06:51:17.640Z,100487.25
2023-03-21T06:53:44.926Z,100493.09
2023-03-21T06:56:13.270Z,100493.88
2023-03-21T06:58:41.616Z,100489.22
2023-03-21T07:01:09.730Z,100486.19
2023-03-21T07:03:38.138Z,100475.16
2023-03-21T07:06:09.019Z,100480.41
2023-03-21T07:08:37.429Z,100488.31
2023-03-21T07:11:07.258Z,100482.34
2023-03-21T07:13:34.523Z,100477.87
2023-03-21T07:16:01.782Z,100478.03
2023-03-21T07:18:29.011Z,100482.97
2023-03-21T07:20:56.103Z,100485.28
2023-03-21T07:23:26.025Z,100494.72
2023-03-21T07:25:55.791Z,100486.06
2023-03-21T07:28:24.156Z,100495.09
2023-03-21T07:30:57.160Z,100499.28
2023-03-21T07:33:25.205Z,100496.69
2023-03-21T07:35:54.044Z,100503.03
2023-03-21T07:38:22.332Z,100500.44
2023-03-21T07:40:49.659Z,100501.16
2023-03-21T07:45:46.490Z,100507.31
2023-03-21T07:48:14.433Z,100510.12
2023-03-21T07:50:41.790Z,100512.25
2023-03-21T07:53:09.322Z,100512.09
2023-03-21T07:55:41.719Z,100508.00
2023-03-21T07:58:08.760Z,100510.50
2023-03-21T08:00:36.017Z,100514.63
2023-03-21T08:03:03.338Z,100510.41
2023-03-21T08:05:35.004Z,100518.09
2023-03-21T08:08:05.227Z,100519.06
2023-03-21T08:10:32.723Z,100515.00
2023-03-21T08:13:00.118Z,100508.09
2023-03-21T08:15:29.946Z,100510.50
2023-03-21T08:17:59.626Z,100508.28
2023-03-21T08:20:26.800Z,100503.31
2023-03-21T08:22:53.811Z,100516.28
2023-03-21T08:25:22.439Z,100503.09
2023-03-21T08:27:53.912Z,100501.53
2023-03-21T08:30:28.539Z,100499.16
2023-03-21T08:33:01.584Z,100493.28
2023-03-21T08:35:29.980Z,100497.22
2023-03-21T08:37:58.045Z,100487.03
2023-03-21T08:40:26.138Z,100496.62
2023-03-21T08:42:53.274Z,100488.53
2023-03-21T08:45:20.915Z,100487.28
2023-03-21T08:47:50.665Z,100480.47
2023-03-21T08:50:20.758Z,100485.97
2023-03-21T08:52:48.380Z,100489.69
2023-03-21T08:55:17.838Z,100488.09
2023-03-21T08:57:45.487Z,100488.13
2023-03-21T09:00:18.177Z,100476.88
2023-03-21T09:02:48.941Z,100484.56
2023-03-21T09:05:17.218Z,100485.41
2023-03-21T09:07:45.287Z,100480.31
2023-03-21T09:10:22.566Z,100474.13
2023-03-21T09:12:51.878Z,100477.97
2023-03-21T09:15:24.024Z,100474.66
2023-03-21T09:17:54.742Z,100469.12
2023-03-21T09:20:33.218Z,100468.97
2023-03-21T09:23:02.162Z,100479.44
2023-03-21T09:25:31.824Z,100478.50
2023-03-21T09:28:00.587Z,100480.78
2023-03-21T09:30:28.936Z,100471.44
2023-03-21T09:32:56.445Z,100482.91
2023-03-21T09:35:25.094Z,100477.34
2023-03-21T09:37:52.408Z,100474.81
2023-03-21T09:40:53.300Z,100469.59
2023-03-21T09:43:36.282Z,100464.66
2023-03-21T09:46:37.547Z,100459.53
2023-03-21T09:49:31.507Z,100469.41
2023-03-21T09:52:06.907Z,100459.31
2023-03-21T09:54:39.814Z,100458.72
2023-03-21T09:57:27.751Z,100468.34
2023-03-21T09:59:56.711Z,100464.31
2023-03-21T10:03:05.520Z,100452.25
2023-03-21T10:05:39.575Z,100461.31
2023-03-21T10:08:13.537Z,100470.69
2023-03-21T10:10:49.768Z,100472.75
2023-03-21T10:13:31.540Z,100462.44
2023-03-21T10:16:02.208Z,100463.53
2023-03-21T10:18:36.139Z,100462.75
2023-03-21T10:21:07.786Z,100463.38
2023-03-21T10:23:35.682Z,100456.81
2023-03-21T10:26:06.858Z,100449.38
2023-03-21T10:28:52.425Z,100444.53
2023-03-21T10:31:25.626Z,100453.41
2023-03-21T10:33:57.395Z,100443.44
2023-03-21T10:36:36.085Z,100436.72
2023-03-21T10:39:06.994Z,100442.06
2023-03-21T10:41:35.410Z,100428.88
2023-03-21T10:44:15.024Z,100428.19
2023-03-21T10:46:54.596Z,100426.47
2023-03-21T10:49:22.374Z,100414.62
2023-03-21T10:51:57.351Z,100418.06
2023-03-21T10:54:30.256Z,100420.56
2023-03-21T10:57:03.348Z,100425.72
2023-03-21T10:59:39.183Z,100410.25
2023-03-21T11:02:16.646Z,100421.75
2023-03-21T11:04:45.138Z,100412.72
2023-03-21T11:07:15.577Z,100408.81
2023-03-21T11:09:54.563Z,100412.69
2023-03-21T11:12:37.417Z,100409.72
2023-03-21T11:15:43.014Z,100409.09
2023-03-21T11:18:23.551Z,100405.12
2023-03-21T11:20:56.563Z,100402.69
2023-03-21T11:23:30.018Z,100407.06
2023-03-21T11:26:01.244Z,100407.84
2023-03-21T11:28:37.972Z,100402.38
2023-03-21T11:31:07.347Z,100400.00
2023-03-21T11:33:44.733Z,100396.34
2023-03-21T11:36:23.275Z,100393.00
2023-03-21T11:38:53.267Z,100391.62
2023-03-21T11:41:36.349Z,100379.59
2023-03-21T11:44:03.993Z,100373.41
2023-03-21T11:46:32.878Z,100374.56
2023-03-21T11:49:01.753Z,100381.00
2023-03-21T11:52:17.394Z,100369.56
2023-03-21T11:55:18.372Z,100372.06
2023-03-21T11:58:14.660Z,100359.97
2023-03-21T12:00:44.863Z,100362.56
2023-03-21T12:03:28.829Z,100370.59
2023-03-21T12:06:02.463Z,100371.69
2023-03-21T12:09:08.199Z,100353.62
2023-03-21T12:11:52.703Z,100348.41
2023-03-21T12:14:48.589Z,100341.59
2023-03-21T12:17:48.613Z,100334.09
2023-03-21T12:20:48.828Z,100327.84
2023-03-21T12:23:29.681Z,100334.00
2023-03-21T12:26:16.088Z,100326.31
2023-03-21T12:29:06.096Z,100321.03
2023-03-21T12:31:55.369Z,100322.00
2023-03-21T12:34:43.311Z,100308.56
2023-03-21T12:37:32.613Z,100299.16
2023-03-21T12:40:43.345Z,100296.34
2023-03-21T12:43:25.025Z,100299.38
2023-03-21T12:45:59.427Z,100297.56
2023-03-21T12:48:48.472Z,100294.03
2023-03-21T12:51:19.722Z,100306.47
2023-03-21T12:54:26.413Z,100295.59
2023-03-21T12:57:29.266Z,100300.66
2023-03-21T13:00:18.056Z,100296.84
2023-03-21T13:02:52.297Z,100295.94
2023-03-21T13:05:22.824Z,100288.75
2023-03-21T13:08:00.770Z,100291.19
2023-03-21T13:10:28.034Z,100278.75
2023-03-21T13:13:10.166Z,100277.94
2023-03-21T13:15:52.687Z,100276.84
2023-03-21T13:18:51.590Z,100275.63
2023-03-21T13:21:22.974Z,100273.78
2023-03-21T13:24:05.710Z,100272.41
2023-03-21T13:26:44.165Z,100279.19
2023-03-21T13:29:27.012Z,100254.88
2023-03-21T13:32:00.617Z,100268.19
2023-03-21T13:34:27.955Z,100256.69
2023-03-21T13:36:58.158Z,100250.34
2023-03-21T13:39:29.391Z,100257.56
2023-03-21T13:42:04.003Z,100262.09
2023-03-21T13:44:50.281Z,100262.31
2023-03-21T13:47:32.162Z,100264.06
2023-03-21T13:50:14.786Z,100268.19
2023-03-21T13:52:41.888Z,100255.53
2023-03-21T13:55:38.663Z,100252.84
2023-03-21T13:58:37.293Z,100262.62
2023-03-21T14:01:20.795Z,100254.53
2023-03-21T14:03:48.508Z,100247.09
2023-03-21T14:06:20.134Z,100257.28
2023-03-21T14:08:49.441Z,100247.97
2023-03-21T14:11:20.380Z,100251.03
2023-03-21T14:13:51.527Z,100247.03
2023-03-21T14:16:25.248Z,100245.31
2023-03-21T14:18:57.023Z,100238.78
2023-03-21T14:21:28.414Z,100234.09
2023-03-21T14:24:15.046Z,100234.94
2023-03-21T14:26:46.110Z,100223.97
2023-03-21T14:29:26.490Z,100230.31
2023-03-21T14:31:56.617Z,100220.84
2023-03-21T14:34:24.383Z,100217.84
2023-03-21T14:36:58.254Z,100225.47
2023-03-21T14:39:33.217Z,100222.63
2023-03-21T14:42:14.070Z,100212.78
2023-03-21T14:44:58.119Z,100222.41
2023-03-21T14:47:30.384Z,100213.03
2023-03-21T14:49:58.454Z,100210.75
2023-03-21T14:52:35.009Z,100213.75
2023-03-21T14:55:06.228Z,100208.72
2023-03-21T14:57:33.973Z,100199.09
2023-03-21T15:00:13.151Z,100199.03
2023-03-21T15:02:42.248Z,100205.22
2023-03-21T15:05:33.984Z,100198.97
2023-03-21T15:08:13.292Z,100192.66
2023-03-21T15:10:42.596Z,100193.56
2023-03-21T15:13:22.951Z,100188.56
2023-03-21T15:15:50.766Z,100188.56
2023-03-21T15:18:28.635Z,100193.13
2023-03-21T15:20:59.012Z,100194.13
2023-03-21T15:23:33.728Z,100185.00
2023-03-21T15:26:04.281Z,100176.84
2023-03-21T15:28:33.343Z,100188.53
2023-03-21T15:31:01.619Z,100191.28
2023-03-21T15:33:28.840Z,100190.44
2023-03-21T15:35:58.045Z,100181.91
2023-03-21T15:38:43.847Z,100184.50
2023-03-21T15:41:30.971Z,100177.53
2023-03-21T15:44:10.376Z,100182.13
2023-03-21T15:46:49.196Z,100176.72
2023-03-21T15:49:16.538Z,100166.69
2023-03-21T15:51:55.210Z,100176.03
2023-03-21T15:54:32.378Z,100173.84
2023-03-21T15:57:20.123Z,100190.91
2023-03-21T15:59:50.113Z,100186.37
2023-03-21T16:02:21.213Z,100179.56
2023-03-21T16:05:02.454Z,100179.41
2023-03-21T16:07:33.733Z,100179.66
2023-03-21T16:10:06.802Z,100187.50
2023-03-21T16:12:34.477Z,100195.12
2023-03-21T16:15:01.360Z,100190.44
2023-03-21T16:17:41.765Z,100201.28
2023-03-21T16:20:24.602Z,100205.88
2023-03-21T16:22:52.077Z,100206.37
2023-03-21T16:25:19.347Z,100202.78
2023-03-21T16:27:47.711Z,100210.94
2023-03-21T16:30:17.806Z,100203.75
2023-03-21T16:32:44.928Z,100212.47
2023-03-21T16:35:12.297Z,100215.12
2023-03-21T16:37:39.421Z,100214.69
2023-03-21T16:40:23.400Z,100216.97
2023-03-21T16:42:50.451Z,100217.00
2023-03-21T16:45:17.689Z,100224.50
2023-03-21T16:47:45.691Z,100208.03
2023-03-21T16:50:36.909Z,100219.41
2023-03-21T16:53:03.965Z,100229.47
2023-03-21T16:55:33.725Z,100228.38
2023-03-21T16:58:03.361Z,100227.88
2023-03-21T17:00:31.566Z,100222.12
2023-03-21T17:03:04.592Z,100226.34
2023-03-21T17:05:51.609Z,100231.69
2023-03-21T17:08:25.723Z,100218.59
2023-03-21T17:10:53.364Z,100224.16
2023-03-21T17:13:20.891Z,100227.06
2023-03-21T17:15:48.024Z,100234.34
2023-03-21T17:18:15.125Z,100229.66
2023-03-21T17:20:42.748Z,100243.59
2023-03-21T17:23:10.478Z,100237.22
2023-03-21T17:25:39.538Z,100230.44
2023-03-21T17:28:06.704Z,100241.66
2023-03-21T17:30:35.969Z,100235.62
2023-03-21T17:33:03.179Z,100230.41
2023-03-21T17:35:30.433Z,100236.81
2023-03-21T17:37:58.692Z,100225.91
2023-03-21T17:40:31.438Z,100228.13
2023-03-21T17:43:01.200Z,100226.87
2023-03-21T17:45:27.965Z,100228.78
2023-03-21T17:47:55.257Z,100236.31
2023-03-21T17:50:25.466Z,100233.25
2023-03-21T17:52:52.858Z,100231.19
2023-03-21T17:55:21.991Z,100232.50
2023-03-21T17:57:49.945Z,100235.06
2023-03-21T18:00:21.446Z,100230.13
2023-03-21T18:02:51.626Z,100239.22
2023-03-21T18:05:21.431Z,100237.22
2023-03-21T18:10:37.288Z,100241.56
2023-03-21T18:13:04.464Z,100237.66
2023-03-21T18:15:31.929Z,100241.72
2023-03-21T18:17:59.509Z,100243.22
2023-03-21T18:20:49.860Z,100242.94
2023-03-21T18:23:15.978Z,100239.16
2023-03-21T18:25:43.156Z,100239.97
2023-03-21T18:28:12.360Z,100244.66
2023-03-21T18:31:00.381Z,100242.09
2023-03-21T18:33:27.928Z,100240.59
2023-03-21T18:35:59.874Z,100250.53
2023-03-21T18:38:29.188Z,100245.81
2023-03-21T18:40:56.536Z,100252.12
2023-03-21T18:46:11.249Z,100257.59
2023-03-21T18:48:39.328Z,100265.00
2023-03-21T18:51:06.501Z,100260.41
2023-03-21T18:53:33.531Z,100268.72
2023-03-21T18:56:03.179Z,100266.63
2023-03-21T18:58:30.060Z,100269.28
2023-03-21T19:00:58.211Z,100268.34
2023-03-21T19:03:35.907Z,100274.53
2023-03-21T19:06:05.358Z,100266.00
2023-03-21T19:08:34.905Z,100268.22
2023-03-21T19:11:06.052Z,100271.53
2023-03-21T19:13:34.728Z,100266.94
2023-03-21T19:16:03.120Z,100275.38
2023-03-21T19:21:20.034Z,100273.53
2023-03-21T19:26:34.438Z,100278.72
2023-03-21T19:29:01.458Z,100279.81
2023-03-21T19:31:28.621Z,100283.41
2023-03-21T19:33:55.891Z,100277.37
2023-03-21T19:36:23.594Z,100277.25
2023-03-21T19:38:51.533Z,100280.31
2023-03-21T19:41:21.544Z,100280.13
2023-03-21T19:43:54.836Z,100285.50
2023-03-21T19:46:27.059Z,100290.88
2023-03-21T19:48:56.540Z,100284.50
2023-03-21T19:51:28.777Z,100286.56
2023-03-21T19:53:58.004Z,100290.66
2023-03-21T19:56:27.390Z,100292.72
2023-03-21T19:58:57.794Z,100292.25
2023-03-21T20:01:25.524Z,100296.78
2023-03-21T20:03:52.847Z,100293.50
2023-03-21T20:06:22.719Z,100293.56
2023-03-21T20:09:34.129Z,100300.12
2023-03-21T20:11:38.342Z,100308.22
2023-03-21T20:14:06.588Z,100309.91
2023-03-21T20:16:35.674Z,100303.31
2023-03-21T20:19:09.274Z,100303.12
2023-03-21T20:21:48.143Z,100301.03
2023-03-21T20:24:18.061Z,100308.13
2023-03-21T20:26:45.991Z,100306.00
2023-03-21T20:30:07.533Z,100313.88
2023-03-21T20:32:01.087Z,100310.84
2023-03-21T20:34:29.133Z,100313.72
2023-03-21T20:36:58.781Z,100313.62
2023-03-21T20:39:28.658Z,100313.09
2023-03-21T20:41:58.973Z,100310.47
2023-03-21T20:44:57.402Z,100308.75
2023-03-21T20:47:14.811Z,100309.03
2023-03-21T20:49:41.782Z,100312.19
2023-03-21T20:54:59.393Z,100311.34
2023-03-21T20:57:30.510Z,100319.38
2023-03-21T20:59:58.007Z,100314.84
2023-03-21T21:02:25.473Z,100313.41
2023-03-21T21:05:21.897Z,100316.41
2023-03-21T21:07:43.179Z,100308.53
2023-03-21T21:10:14.149Z,100309.84
2023-03-21T21:12:45.368Z,100309.47
2023-03-21T21:15:15.309Z,100306.75
2023-03-21T21:20:29.935Z,100308.16
2023-03-21T21:23:00.105Z,100304.28
2023-03-21T21:25:29.388Z,100299.41
2023-03-21T21:27:56.816Z,100303.19
2023-03-21T21:30:24.837Z,100303.34
2023-03-21T21:32:51.928Z,100319.53
2023-03-21T21:35:20.838Z,100310.25
2023-03-21T21:37:51.491Z,100322.94
2023-03-21T21:40:20.797Z,100317.94
2023-03-21T21:42:48.677Z,100327.22
2023-03-21T21:45:16.114Z,100324.09
2023-03-21T21:47:45.330Z,100323.12
2023-03-21T21:50:13.588Z,100320.34
2023-03-21T21:52:43.885Z,100322.72
2023-03-21T21:55:11.316Z,100326.28
2023-03-21T21:57:39.967Z,100329.00
2023-03-21T22:00:13.235Z,100327.84
2023-03-21T22:02:41.544Z,100330.56
2023-03-21T22:05:11.051Z,100335.06
2023-03-21T22:07:39.399Z,100328.87
2023-03-21T22:10:07.085Z,100342.56
2023-03-21T22:12:34.645Z,100342.22
2023-03-21T22:15:01.901Z,100343.22
2023-03-21T22:17:28.910Z,100337.19
2023-03-21T22:20:05.580Z,100337.19
2023-03-21T22:22:37.014Z,100333.62
2023-03-21T22:25:06.140Z,100337.19
2023-03-21T22:27:33.788Z,100337.19
2023-03-21T22:30:04.625Z,100334.09
2023-03-21T22:32:32.769Z,100336.78
2023-03-21T22:35:02.692Z,100332.47
2023-03-21T22:37:29.960Z,100330.72
2023-03-21T22:39:56.891Z,100327.94
2023-03-21T22:42:24.071Z,100328.75
2023-03-21T22:44:51.005Z,100339.69
2023-03-21T22:47:18.462Z,100335.13
2023-03-21T22:49:46.604Z,100330.03
2023-03-21T22:52:14.492Z,100331.09
2023-03-21T22:54:41.645Z,100337.31
2023-03-21T22:57:09.250Z,100333.81
2023-03-21T22:59:36.277Z,100333.41
2023-03-21T23:02:03.386Z,100336.59
2023-03-21T23:04:31.551Z,100331.59
2023-03-21T23:06:58.846Z,100337.62
2023-03-21T23:09:25.839Z,100334.25
2023-03-21T23:11:52.778Z,100332.63
2023-03-21T23:14:21.192Z,100334.47
2023-03-21T23:16:49.944Z,100335.53
2023-03-21T23:19:17.678Z,100333.34
2023-03-21T23:21:44.900Z,100331.13
2023-03-21T23:24:11.979Z,100326.91
2023-03-21T23:26:39.923Z,100326.41
2023-03-21T23:29:09.420Z,100324.28
2023-03-21T23:31:37.095Z,100326.41
2023-03-21T23:34:04.793Z,100320.69
2023-03-21T23:36:32.401Z,100325.56
2023-03-21T23:38:59.399Z,100325.41
2023-03-21T23:41:26.487Z,100317.63
2023-03-21T23:43:54.147Z,100318.09
2023-03-21T23:46:21.871Z,100311.41
2023-03-21T23:48:49.402Z,100309.72
2023-03-21T23:51:18.302Z,100309.25
2023-03-21T23:53:46.571Z,100305.59
2023-03-21T23:56:22.051Z,100307.44
2023-03-21T23:58:50.455Z,100312.59
